Time;durP1;ratioP1;P1;durP2;ratioP2;P2;SDS_P1;SDS_P2;PMS_P1;PMS_P2;Temp;Humidity;BMP_temperature;BMP_pressure;BME280_temperature;BME280_humidity;BME280_pressure;Samples;Min_cycle;Max_cycle;Signal;HPM_P1;HPM_P2
2023/09/26 00:00:19;;;;;;;7.95;5.20;;;;;;;10.61;91.01;102343.31;4845671;29;20089;-79
2023/09/26 00:02:48;;;;;;;5.25;4.75;;;;;;;10.55;91.51;102332.69;4871892;29;20053;-80
2023/09/26 00:05:14;;;;;;;6.38;4.32;;;;;;;10.57;91.61;102334.13;4838559;29;20969;-79
2023/09/26 00:07:40;;;;;;;5.38;4.65;;;;;;;10.53;91.20;102330.25;4849492;29;20052;-81
2023/09/26 00:10:06;;;;;;;;;;;;;;;10.52;91.28;102328.63;4852796;29;20050;-80
2023/09/26 00:12:33;;;;;;;4.95;4.45;;;;;;;10.50;91.47;102336.09;4867856;29;19920;-80
2023/09/26 00:14:59;;;;;;;6.72;5.35;;;;;;;10.51;92.10;102332.34;4849604;29;20546;-77
2023/09/26 00:17:27;;;;;;;6.50;5.80;;;;;;;10.48;93.02;102327.44;4855494;29;20085;-74
2023/09/26 00:19:57;;;;;;;7.32;5.63;;;;;;;10.47;92.95;102336.53;4846561;29;20045;-77
2023/09/26 00:22:26;;;;;;;7.47;5.60;;;;;;;10.51;92.96;102339.59;4862158;29;20095;-80
2023/09/26 00:24:58;;;;;;;7.95;6.50;;;;;;;10.47;93.67;102336.53;4862960;29;20121;-79
2023/09/26 00:27:50;;;;;;;6.47;5.60;;;;;;;10.51;93.43;102348.44;4834674;29;20060;-78
2023/09/26 00:30:20;;;;;;;7.00;6.05;;;;;;;10.51;94.02;102343.06;4846904;29;20045;-77
2023/09/26 00:36:10;;;;;;;7.13;6.18;;;;;;;10.55;94.47;102352.25;4895052;29;20060;-80
2023/09/26 00:38:40;;;;;;;7.82;6.38;;;;;;;10.54;94.48;102347.97;4877595;29;20074;-80
2023/09/26 00:41:06;;;;;;;8.05;6.75;;;;;;;10.53;94.42;102343.66;4873693;29;20044;-80
2023/09/26 00:43:35;;;;;;;9.45;6.65;;;;;;;10.54;94.53;102347.97;4890515;29;20673;-81
2023/09/26 00:46:15;;;;;;;6.90;6.20;;;;;;;10.46;94.34;102337.59;4885128;29;20048;-81
2023/09/26 00:48:52;;;;;;;8.65;6.32;;;;;;;10.47;94.45;102336.53;4900830;29;20036;-81
2023/09/26 00:51:22;;;;;;;7.78;6.68;;;;;;;10.48;94.18;102338.16;4892850;29;20197;-79
2023/09/26 00:53:56;;;;;;;7.65;6.78;;;;;;;10.48;94.33;102332.81;4876051;29;20075;-77
2023/09/26 00:56:24;;;;;;;7.90;5.82;;;;;;;10.47;94.60;102323.13;4877958;29;20068;-79
2023/09/26 00:58:53;;;;;;;7.70;5.95;;;;;;;10.47;94.44;102331.19;4887754;29;20055;-80
2023/09/26 01:01:24;;;;;;;7.60;6.25;;;;;;;10.45;94.29;102335.13;4862175;29;20495;-80
2023/09/26 01:03:50;;;;;;;7.97;6.63;;;;;;;10.46;94.41;102339.44;4898576;29;20036;-79
2023/09/26 01:06:16;;;;;;;10.98;6.85;;;;;;;10.44;94.68;102339.69;4875287;29;20075;-77
2023/09/26 01:08:42;;;;;;;9.77;7.85;;;;;;;10.45;94.88;102349.34;4880404;29;20482;-81
2023/09/26 01:11:08;;;;;;;7.43;6.72;;;;;;;10.45;94.41;102340.50;4880447;29;20036;-78
2023/09/26 01:13:33;;;;;;;;;;;;;;;10.45;94.74;102344.00;4858578;29;20071;-79
2023/09/26 01:16:13;;;;;;;7.93;6.13;;;;;;;10.44;94.57;102345.03;4861964;29;19950;-77
2023/09/26 01:18:38;;;;;;;7.43;6.35;;;;;;;10.41;94.96;102342.81;4875548;29;20481;-80
2023/09/26 01:21:07;;;;;;;8.85;7.03;;;;;;;10.39;94.93;102334.19;4859298;29;20040;-79
2023/09/26 01:23:36;;;;;;;8.15;6.30;;;;;;;10.41;94.45;102332.09;4853809;29;20067;-80
2023/09/26 01:26:02;;;;;;;7.75;6.50;;;;;;;10.36;93.88;102323.91;4886802;29;20066;-77
2023/09/26 01:28:27;;;;;;;7.50;6.72;;;;;;;10.36;94.15;102323.91;4887232;29;20036;-79
2023/09/26 01:30:53;;;;;;;7.70;6.78;;;;;;;10.34;94.23;102336.72;4879729;29;20047;-79
2023/09/26 01:33:21;;;;;;;7.88;6.25;;;;;;;10.31;94.26;102331.84;4859225;29;20041;-78
2023/09/26 01:35:51;;;;;;;8.10;6.63;;;;;;;10.28;93.71;102332.28;4922253;29;20044;-78
2023/09/26 01:38:19;;;;;;;8.60;6.63;;;;;;;10.27;93.93;102331.47;4915370;29;20561;-79
2023/09/26 01:40:46;;;;;;;7.63;6.43;;;;;;;10.24;93.75;102331.13;4889972;29;20040;-77
2023/09/26 01:43:12;;;;;;;7.53;6.25;;;;;;;10.22;93.71;102322.47;4905531;29;20415;-78
2023/09/26 01:45:39;;;;;;;6.78;6.03;;;;;;;10.18;94.26;102321.28;4889720;29;20037;-79
2023/09/26 01:48:05;;;;;;;7.95;6.78;;;;;;;10.12;94.15;102313.13;4861916;29;20033;-79
2023/09/26 01:50:35;;;;;;;8.30;6.72;;;;;;;10.11;94.13;102316.84;4904481;29;20047;-81
2023/09/26 01:53:01;;;;;;;7.80;7.00;;;;;;;10.12;94.59;102309.63;4875039;29;20036;-82
2023/09/26 01:55:27;;;;;;;8.88;7.47;;;;;;;10.09;94.72;102324.31;4859962;29;20041;-79
2023/09/26 01:57:53;;;;;;;7.47;6.35;;;;;;;10.09;95.09;102313.59;4878104;29;20036;-81
2023/09/26 02:00:22;;;;;;;7.88;7.07;;;;;;;10.08;95.35;102317.28;4877045;29;20111;-80
2023/09/26 02:02:50;;;;;;;8.40;6.72;;;;;;;10.08;95.47;102316.47;4889081;29;20044;-78
2023/09/26 02:05:18;;;;;;;9.73;7.55;;;;;;;10.07;95.01;102320.19;4888278;29;20502;-80
2023/09/26 02:07:47;;;;;;;9.07;6.75;;;;;;;10.07;95.24;102314.84;4886747;29;20040;-78
2023/09/26 02:10:17;;;;;;;8.02;7.18;;;;;;;10.07;95.03;102314.84;4875180;29;20092;-81
2023/09/26 02:12:50;;;;;;;7.05;6.10;;;;;;;10.07;95.00;102320.19;4889072;29;20148;-80
2023/09/26 02:15:17;;;;;;;6.72;5.95;;;;;;;10.06;95.04;102314.03;4873859;29;20120;-78
2023/09/26 02:17:44;;;;;;;7.32;6.32;;;;;;;10.04;95.30;102305.44;4854371;29;20135;-81
2023/09/26 02:20:14;;;;;;;6.53;5.82;;;;;;;9.97;94.63;102299.34;4870468;29;20906;-78
2023/09/26 02:22:42;;;;;;;9.52;6.72;;;;;;;9.92;94.14;102307.22;4886970;29;20455;-78
2023/09/26 02:25:10;;;;;;;6.43;5.82;;;;;;;9.92;94.14;102311.78;4866315;29;20034;-79
2023/09/26 02:27:37;;;;;;;6.85;6.15;;;;;;;9.84;93.48;102303.03;4902696;29;20066;-81
2023/09/26 02:30:08;;;;;;;8.82;6.32;;;;;;;9.81;93.06;102306.13;4867386;29;20041;-77
2023/09/26 02:32:36;;;;;;;8.07;5.72;;;;;;;9.80;92.58;102298.34;4899676;29;20152;-81
2023/09/26 02:35:03;;;;;;;8.38;5.93;;;;;;;9.76;92.32;102291.81;4872828;29;20036;-78
2023/09/26 02:37:30;;;;;;;7.07;6.38;;;;;;;9.76;92.48;102289.16;4899120;29;20144;-79
2023/09/26 02:39:55;;;;;;;6.88;6.18;;;;;;;9.71;92.30;102297.03;4880331;29;20139;-79
2023/09/26 02:42:21;;;;;;;;;;;;;;;9.71;92.76;102305.06;4911177;29;20986;-79
2023/09/26 02:44:49;;;;;;;6.43;5.78;;;;;;;9.67;93.06;102309.22;4856656;29;19919;-81
2023/09/26 02:47:15;;;;;;;7.15;6.25;;;;;;;9.62;93.41;102290.34;4878638;29;20052;-79
2023/09/26 02:49:42;;;;;;;6.70;5.85;;;;;;;9.60;93.06;102293.25;4868623;29;20025;-80
2023/09/26 02:52:08;;;;;;;8.40;6.25;;;;;;;9.52;92.84;102291.69;4897837;29;20043;-80
2023/09/26 02:54:34;;;;;;;6.47;5.78;;;;;;;9.52;92.90;102286.34;4876045;29;20092;-80
2023/09/26 02:57:02;;;;;;;7.50;6.10;;;;;;;9.47;93.09;102283.53;4860816;29;20143;-78
2023/09/26 02:59:29;;;;;;;;;;;;;;;9.51;93.65;102284.72;4888696;29;20039;-80
2023/09/26 03:01:56;;;;;;;9.65;6.20;;;;;;;9.49;94.21;102292.16;4886565;29;19976;-80
2023/09/26 03:04:24;;;;;;;6.45;5.85;;;;;;;9.48;94.34;102293.19;4873406;29;20355;-82
2023/09/26 03:06:54;;;;;;;7.95;6.90;;;;;;;9.48;94.38;102289.69;4875727;29;20040;-79
2023/09/26 03:09:19;;;;;;;;;;;;;;;9.44;94.53;102292.00;4872841;29;20087;-80
2023/09/26 03:11:45;;;;;;;8.65;6.20;;;;;;;9.39;94.35;102285.69;4885749;29;20435;-77
2023/09/26 03:14:10;;;;;;;7.15;5.55;;;;;;;9.39;94.05;102291.84;4861104;29;20037;-77
2023/09/26 03:16:37;;;;;;;7.63;5.85;;;;;;;9.40;93.88;102293.47;4885954;29;20040;-78
2023/09/26 03:19:02;;;;;;;8.23;5.72;;;;;;;9.35;93.27;102293.34;4879887;29;20092;-77
2023/09/26 03:21:31;;;;;;;8.40;6.10;;;;;;;9.34;92.65;102289.03;4897445;29;20120;-77
2023/09/26 03:23:57;;;;;;;6.53;5.82;;;;;;;9.32;93.47;102285.75;4876983;29;20057;-79
2023/09/26 03:26:23;;;;;;;7.72;6.93;;;;;;;9.32;93.98;102285.75;4863459;29;20068;-79
2023/09/26 03:28:51;;;;;;;9.15;7.40;;;;;;;9.37;94.20;102298.47;4902472;29;20040;-78
2023/09/26 03:31:18;;;;;;;7.90;6.80;;;;;;;9.33;94.86;102284.72;4904889;29;20047;-80
2023/09/26 03:33:43;;;;;;;8.20;5.93;;;;;;;9.30;94.55;102277.16;4857720;29;20135;-78
2023/09/26 03:36:10;;;;;;;5.82;5.22;;;;;;;9.27;94.11;102273.06;4889101;29;20045;-79
2023/09/26 03:38:36;;;;;;;7.35;6.40;;;;;;;9.29;94.36;102278.22;4885677;29;20482;-79
2023/09/26 03:41:04;;;;;;;8.50;6.55;;;;;;;9.27;94.50;102266.91;4861721;29;20045;-77
2023/09/26 03:43:30;;;;;;;8.05;6.78;;;;;;;9.29;94.13;102271.00;4886134;29;20037;-79
2023/09/26 03:46:07;;;;;;;7.38;5.50;;;;;;;9.27;94.11;102264.22;4874790;29;20048;-78
2023/09/26 03:48:34;;;;;;;7.60;6.53;;;;;;;9.27;94.33;102273.06;4885541;29;20037;-79
2023/09/26 03:51:08;;;;;;;6.95;6.20;;;;;;;9.27;94.31;102269.56;4872315;29;20044;-78
2023/09/26 03:53:36;;;;;;;9.52;6.68;;;;;;;9.25;94.40;102274.34;4857843;29;20123;-79
2023/09/26 03:56:05;;;;;;;7.38;6.03;;;;;;;9.22;94.46;102269.44;4881884;29;20059;-78
2023/09/26 03:58:32;;;;;;;7.80;5.95;;;;;;;9.20;94.23;102268.84;4886837;29;20040;-78
2023/09/26 04:01:12;;;;;;;7.30;5.82;;;;;;;9.16;93.55;102275.69;4873882;29;20052;-79
2023/09/26 04:03:48;;;;;;;6.45;5.75;;;;;;;9.15;93.22;102268.72;4875625;29;20454;-80
2023/09/26 04:06:16;;;;;;;7.22;5.85;;;;;;;9.14;93.14;102272.38;4879953;29;20048;-80
2023/09/26 04:08:41;;;;;;;7.38;6.05;;;;;;;9.07;92.83;102266.31;4886177;29;20053;-78
2023/09/26 04:11:19;;;;;;;8.25;6.32;;;;;;;9.06;93.23;102275.38;4863104;29;20046;-81
2023/09/26 04:13:45;;;;;;;8.02;6.60;;;;;;;9.08;93.63;102265.25;4862879;29;20155;-79
2023/09/26 04:16:10;;;;;;;8.07;6.75;;;;;;;9.03;94.06;102274.78;4893399;29;20967;-80
2023/09/26 04:18:37;;;;;;;8.60;6.88;;;;;;;9.03;94.03;102285.47;4883966;29;20111;-78
2023/09/26 04:21:04;;;;;;;8.25;6.03;;;;;;;9.00;94.16;102272.53;4882421;29;20040;-78
2023/09/26 04:23:32;;;;;;;9.15;5.68;;;;;;;8.94;93.62;102265.44;4879430;29;20036;-79
2023/09/26 04:25:58;;;;;;;7.53;6.10;;;;;;;8.94;93.87;102264.59;4898485;29;20356;-79
2023/09/26 04:28:26;;;;;;;8.95;7.03;;;;;;;8.92;94.09;102264.00;4879068;29;20044;-78
2023/09/26 04:30:53;;;;;;;9.85;6.40;;;;;;;8.89;93.93;102259.91;4885071;29;20040;-78
2023/09/26 04:33:18;;;;;;;8.60;6.57;;;;;;;8.89;93.69;102265.25;4885780;29;20037;-78
2023/09/26 04:35:46;;;;;;;6.65;5.95;;;;;;;8.87;94.28;102251.28;4880464;29;20044;-79
2023/09/26 04:38:11;;;;;;;7.90;6.88;;;;;;;8.89;94.36;102254.59;4856433;29;20048;-80
2023/09/26 04:40:37;;;;;;;7.25;6.00;;;;;;;8.87;94.33;102253.16;4894027;29;20032;-78
2023/09/26 04:43:05;;;;;;;8.52;6.60;;;;;;;8.85;94.39;102240.03;4894273;29;20444;-78
2023/09/26 04:45:34;;;;;;;8.48;6.93;;;;;;;8.86;94.92;102249.66;4864937;29;20052;-78
2023/09/26 04:48:02;;;;;;;9.02;7.20;;;;;;;8.87;95.34;102245.94;4875184;29;20645;-78
2023/09/26 04:50:31;;;;;;;8.60;7.30;;;;;;;8.86;96.25;102243.50;4902555;29;20040;-78
2023/09/26 04:52:57;;;;;;;8.43;7.53;;;;;;;8.92;96.95;102245.28;4875618;29;20506;-77
2023/09/26 04:55:23;;;;;;;9.15;7.28;;;;;;;8.94;97.16;102249.41;4861090;29;20055;-78
2023/09/26 04:57:49;;;;;;;9.32;7.13;;;;;;;8.93;96.72;102250.41;4890794;29;20109;-79
2023/09/26 05:00:19;;;;;;;8.50;7.07;;;;;;;8.95;96.83;102239.53;4900087;29;20032;-80
2023/09/26 05:02:45;;;;;;;9.80;6.93;;;;;;;8.92;96.34;102243.44;4894962;29;20040;-78
2023/09/26 05:05:14;;;;;;;10.00;6.70;;;;;;;8.89;96.39;102238.53;4891775;29;20081;-80
2023/09/26 05:07:42;;;;;;;8.43;6.68;;;;;;;8.88;96.12;102244.94;4908090;29;20041;-79
2023/09/26 05:10:11;;;;;;;8.60;7.35;;;;;;;8.84;96.84;102241.06;4876991;29;20049;-78
2023/09/26 05:12:40;;;;;;;7.93;6.70;;;;;;;8.85;96.78;102248.03;4897208;29;20043;-82
2023/09/26 05:15:13;;;;;;;9.73;6.68;;;;;;;8.86;96.69;102241.66;4896459;29;20128;-81
2023/09/26 05:17:46;;;;;;;7.53;6.30;;;;;;;8.83;96.26;102244.78;4882058;29;20036;-80
2023/09/26 05:20:13;;;;;;;6.93;6.22;;;;;;;8.81;96.30;102252.19;4895623;29;20039;-80
2023/09/26 05:22:41;;;;;;;6.75;6.05;;;;;;;8.80;95.93;102258.56;4904484;29;20046;-79
2023/09/26 05:25:13;;;;;;;8.43;6.93;;;;;;;8.77;95.82;102255.53;4877063;29;20048;-79
2023/09/26 05:27:41;;;;;;;8.43;6.30;;;;;;;8.77;95.81;102258.19;4864447;29;20056;-79
2023/09/26 05:30:09;;;;;;;8.85;6.47;;;;;;;8.74;96.07;102254.13;4874560;29;20046;-77
2023/09/26 05:32:35;;;;;;;8.40;6.97;;;;;;;8.72;95.83;102251.66;4876236;29;20139;-79
2023/09/26 05:35:01;;;;;;;;;;;;;;;8.77;96.18;102251.00;4876973;29;20045;-78
2023/09/26 05:37:27;;;;;;;9.00;6.38;;;;;;;8.75;95.76;102253.09;4893439;29;20289;-79
2023/09/26 05:39:53;;;;;;;9.45;7.82;;;;;;;8.72;96.19;102261.50;4888904;29;20128;-79
2023/09/26 05:42:19;;;;;;;8.75;7.20;;;;;;;8.74;95.93;102264.81;4894446;29;20151;-82
2023/09/26 05:44:46;;;;;;;8.13;6.72;;;;;;;8.72;96.11;102269.53;4883738;29;20048;-79
2023/09/26 05:47:11;;;;;;;9.30;6.60;;;;;;;8.69;96.31;102275.31;4882834;29;20040;-80
2023/09/26 05:49:38;;;;;;;;;;;;;;;8.72;96.08;102275.69;4893508;29;20033;-78
2023/09/26 05:52:05;;;;;;;6.55;5.72;;;;;;;8.70;96.00;102260.94;4892440;29;19926;-78
2023/09/26 05:54:33;;;;;;;8.45;6.60;;;;;;;8.74;96.48;102256.78;4885699;29;20033;-79
2023/09/26 05:56:59;;;;;;;7.03;5.82;;;;;;;8.78;96.47;102257.16;4901184;29;20092;-79
2023/09/26 05:59:26;;;;;;;7.47;6.28;;;;;;;8.84;96.53;102266.97;4875376;29;20045;-78
2023/09/26 06:01:51;;;;;;;8.70;7.30;;;;;;;8.89;97.06;102265.25;4879882;29;20057;-78
2023/09/26 06:04:18;;;;;;;8.15;6.97;;;;;;;8.96;97.60;102266.00;4877601;29;20037;-78
2023/09/26 06:06:47;;;;;;;9.70;7.35;;;;;;;9.01;98.21;102252.81;4843680;29;20104;-78
2023/09/26 06:09:13;;;;;;;9.27;7.90;;;;;;;9.16;98.72;102256.97;4890010;29;20260;-78
2023/09/26 06:11:39;;;;;;;;;;;;;;;9.30;99.05;102266.47;4884651;29;20040;-78
2023/09/26 06:14:05;;;;;;;8.50;6.90;;;;;;;9.42;98.95;102256.66;4870846;29;19996;-78
2023/09/26 06:16:31;;;;;;;7.75;6.95;;;;;;;9.55;98.57;102256.50;4876993;29;20036;-79
2023/09/26 06:18:57;;;;;;;9.77;7.22;;;;;;;9.71;98.50;102263.06;4862499;29;20065;-78
2023/09/26 06:21:23;;;;;;;9.68;7.07;;;;;;;9.81;97.88;102265.19;4896778;29;20039;-78
2023/09/26 06:23:49;;;;;;;7.75;6.43;;;;;;;9.94;97.67;102251.63;4861455;29;20032;-78
2023/09/26 06:26:18;;;;;;;8.73;6.75;;;;;;;10.08;96.85;102242.34;4898087;29;20502;-79
2023/09/26 06:28:44;;;;;;;7.70;6.28;;;;;;;10.25;96.40;102247.06;4882739;29;20044;-77
2023/09/26 06:31:10;;;;;;;7.50;6.47;;;;;;;10.34;96.03;102245.69;4843503;29;20127;-77
2023/09/26 06:33:37;;;;;;;8.82;6.70;;;;;;;10.47;95.61;102244.66;4874469;29;20040;-81
2023/09/26 06:36:12;;;;;;;8.40;6.72;;;;;;;10.59;95.00;102235.56;4891487;29;20037;-77
2023/09/26 06:38:38;;;;;;;9.25;6.28;;;;;;;10.72;95.00;102252.47;4861450;29;20510;-78
2023/09/26 06:41:07;;;;;;;7.47;6.65;;;;;;;10.78;94.82;102251.53;4884198;29;20043;-81
2023/09/26 06:43:33;;;;;;;8.15;7.35;;;;;;;10.93;94.42;102249.19;4883834;29;20202;-78
2023/09/26 06:46:04;;;;;;;8.88;6.80;;;;;;;10.99;94.05;102245.56;4879405;29;20108;-79
2023/09/26 06:48:31;;;;;;;9.57;5.97;;;;;;;11.11;93.76;102246.38;4874728;29;20057;-77
2023/09/26 06:50:57;;;;;;;7.28;6.28;;;;;;;11.25;93.24;102248.78;4891727;29;20044;-79
2023/09/26 06:53:24;;;;;;;8.45;6.10;;;;;;;11.35;92.19;102247.09;4884612;29;20109;-79
2023/09/26 06:56:00;;;;;;;7.00;5.95;;;;;;;11.47;91.43;102249.75;4880021;29;20033;-81
2023/09/26 06:58:25;;;;;;;7.70;5.88;;;;;;;11.57;91.05;102239.22;4863819;29;20075;-78
2023/09/26 07:00:52;;;;;;;6.68;5.97;;;;;;;11.69;90.38;102244.53;4870797;29;20498;-78
2023/09/26 07:03:18;;;;;;;7.07;5.82;;;;;;;11.79;89.80;102236.69;4919104;29;20049;-79
2023/09/26 07:05:45;;;;;;;7.88;5.50;;;;;;;11.90;90.14;102245.75;4919132;29;20054;-79
2023/09/26 07:08:15;;;;;;;6.63;5.72;;;;;;;12.03;88.91;102246.25;4900911;29;20128;-79
2023/09/26 07:10:43;;;;;;;6.43;5.47;;;;;;;12.13;88.90;102252.88;4884039;29;20570;-80
2023/09/26 07:13:10;;;;;;;6.05;5.45;;;;;;;12.18;87.21;102245.69;4878181;29;20037;-80
2023/09/26 07:15:35;;;;;;;6.45;5.80;;;;;;;12.27;86.79;102246.94;4872328;29;20049;-79
2023/09/26 07:18:06;;;;;;;7.00;5.15;;;;;;;12.26;86.57;102256.06;4874545;29;20783;-80
2023/09/26 07:20:33;;;;;;;8.07;6.07;;;;;;;12.37;86.56;102243.59;4861618;29;20037;-80
2023/09/26 07:22:59;;;;;;;8.23;5.85;;;;;;;12.46;86.58;102250.19;4868945;29;20032;-79
2023/09/26 07:25:25;;;;;;;7.80;5.38;;;;;;;12.57;85.78;102253.84;4853389;29;20060;-79
2023/09/26 07:27:53;;;;;;;8.60;5.50;;;;;;;12.72;86.72;102253.25;4882289;29;20037;-79
2023/09/26 07:30:19;;;;;;;6.28;4.85;;;;;;;12.84;86.72;102253.94;4889642;29;20592;-79
2023/09/26 07:32:45;;;;;;;7.55;5.10;;;;;;;12.98;85.91;102249.84;4903843;29;20052;-79
2023/09/26 07:35:11;;;;;;;;;;;;;;;13.09;85.54;102250.81;4877093;29;20065;-81
2023/09/26 07:37:37;;;;;;;6.63;5.47;;;;;;;13.14;84.35;102245.50;4878924;29;20388;-78
2023/09/26 07:40:05;;;;;;;7.03;5.43;;;;;;;13.20;83.67;102247.19;4873934;29;20033;-80
2023/09/26 07:42:32;;;;;;;6.65;5.25;;;;;;;13.29;84.00;102250.28;4859704;29;20048;-79
2023/09/26 07:44:59;;;;;;;5.85;4.95;;;;;;;13.36;84.75;102246.31;4916263;29;20032;-77
2023/09/26 07:47:24;;;;;;;;;;;;;;;13.44;84.08;102255.00;4896306;29;20055;-79
2023/09/26 07:49:53;;;;;;;7.22;5.47;;;;;;;13.39;84.12;102256.56;4875012;29;19951;-80
2023/09/26 07:52:22;;;;;;;6.22;4.97;;;;;;;13.43;84.02;102264.97;4894342;29;20041;-78
2023/09/26 07:54:48;;;;;;;6.57;5.25;;;;;;;13.48;83.50;102264.19;4856464;29;20032;-80
2023/09/26 07:57:13;;;;;;;;;;;;;;;13.55;82.47;102259.47;4871195;29;20047;-78
2023/09/26 07:59:39;;;;;;;7.38;4.85;;;;;;;13.59;82.57;102271.31;4860947;29;19943;-78
2023/09/26 08:02:06;;;;;;;5.82;4.88;;;;;;;13.62;82.46;102265.47;4873829;29;20509;-82
2023/09/26 08:04:31;;;;;;;;;;;;;;;13.67;83.21;102262.78;4870528;29;20041;-79
2023/09/26 08:06:57;;;;;;;7.78;4.78;;;;;;;13.62;83.17;102254.69;4874051;29;19923;-79
2023/09/26 08:09:24;;;;;;;5.80;4.75;;;;;;;13.63;82.65;102262.50;4889607;29;20032;-79
2023/09/26 08:11:50;;;;;;;7.40;5.25;;;;;;;13.73;83.21;102258.28;4885417;29;20546;-78
2023/09/26 08:14:17;;;;;;;5.70;5.05;;;;;;;13.86;82.81;102249.81;4858407;29;20029;-78
2023/09/26 08:16:43;;;;;;;6.05;5.13;;;;;;;13.95;82.40;102250.94;4907726;29;20069;-77
2023/09/26 08:19:11;;;;;;;;;;;;;;;14.05;81.75;102258.34;4890007;29;20071;-79
2023/09/26 08:21:39;;;;;;;7.13;5.07;;;;;;;14.17;81.79;102250.91;4876115;29;20401;-78
2023/09/26 08:24:06;;;;;;;5.70;4.55;;;;;;;14.33;81.66;102254.53;4889664;29;20067;-75
2023/09/26 08:26:31;;;;;;;7.30;5.07;;;;;;;14.45;81.88;102257.84;4896505;29;20147;-77
2023/09/26 08:28:57;;;;;;;;;;;;;;;14.57;81.02;102260.41;4889652;29;20041;-79
2023/09/26 08:31:23;;;;;;;6.95;4.93;;;;;;;14.70;80.28;102259.94;4900078;29;20465;-78
2023/09/26 08:33:49;;;;;;;7.95;5.50;;;;;;;14.77;80.41;102265.94;4856389;29;20184;-79
2023/09/26 08:36:18;;;;;;;10.43;5.43;;;;;;;14.80;80.81;102270.78;4881931;29;20069;-79
2023/09/26 08:38:47;;;;;;;7.75;5.28;;;;;;;14.82;79.53;102262.44;4885336;29;20045;-80
2023/09/26 08:41:12;;;;;;;6.55;5.57;;;;;;;14.88;80.12;102267.59;4897629;29;20056;-77
2023/09/26 08:43:39;;;;;;;;;;;;;;;14.97;80.04;102255.25;4867678;29;20131;-77
2023/09/26 08:46:06;;;;;;;5.13;4.53;;;;;;;14.99;79.88;102263.88;4884789;29;20357;-78
2023/09/26 08:48:34;;;;;;;6.70;6.00;;;;;;;15.13;79.72;102260.72;4872294;29;20525;-76
2023/09/26 08:51:02;;;;;;;6.82;4.75;;;;;;;15.23;79.14;102258.84;4871110;29;20052;-80
2023/09/26 08:53:28;;;;;;;6.75;5.05;;;;;;;15.35;78.95;102244.31;4892924;29;20045;-72
2023/09/26 08:55:55;;;;;;;;;;;;;;;15.38;77.96;102247.31;4876267;29;20047;-77
2023/09/26 08:58:22;;;;;;;5.40;4.85;;;;;;;15.37;78.21;102239.47;4874646;29;19962;-79
2023/09/26 09:00:54;;;;;;;7.50;4.97;;;;;;;15.41;78.41;102244.06;4899386;29;20486;-77
2023/09/26 09:03:21;;;;;;;;;;;;;;;15.51;78.22;102241.44;4886207;29;20281;-80
2023/09/26 09:05:47;;;;;;;5.93;4.95;;;;;;;15.55;77.53;102239.78;4893709;29;19952;-76
2023/09/26 09:08:18;;;;;;;;;;;;;;;15.63;77.06;102238.50;4890639;29;20040;-76
2023/09/26 09:10:52;;;;;;;5.63;4.50;;;;;;;15.73;78.59;102241.22;4886626;29;19919;-79
2023/09/26 09:13:28;;;;;;;7.50;4.30;;;;;;;15.91;76.91;102231.78;4901860;29;20066;-77
2023/09/26 09:16:09;;;;;;;5.35;4.18;;;;;;;16.07;76.26;102228.00;4895373;29;20137;-79
2023/09/26 09:18:37;;;;;;;5.13;4.63;;;;;;;16.27;76.60;102223.69;4900648;29;20448;-76
2023/09/26 09:21:20;;;;;;;6.68;4.32;;;;;;;16.43;76.29;102233.38;4874062;29;20406;-76
2023/09/26 09:23:46;;;;;;;7.18;4.65;;;;;;;16.55;75.87;102223.09;4881947;29;20048;-80
2023/09/26 09:26:12;;;;;;;5.90;4.93;;;;;;;16.65;75.28;102220.34;4902161;29;20054;-78
2023/09/26 09:28:38;;;;;;;5.30;4.80;;;;;;;16.82;74.69;102213.88;4859892;29;20036;-78
2023/09/26 09:31:03;;;;;;;7.00;5.07;;;;;;;16.96;74.03;102212.19;4872655;29;20044;-74
2023/09/26 09:33:31;;;;;;;5.05;4.32;;;;;;;17.05;72.93;102207.81;4881734;29;20028;-76
2023/09/26 09:35:57;;;;;;;8.82;4.70;;;;;;;17.03;72.43;102198.34;4876429;29;20043;-77
2023/09/26 09:38:26;;;;;;;7.00;4.57;;;;;;;16.95;73.20;102194.34;4874900;29;20510;-77
2023/09/26 09:40:52;;;;;;;7.30;4.55;;;;;;;16.92;73.86;102208.41;4907255;29;20478;-77
2023/09/26 09:43:19;;;;;;;8.10;4.50;;;;;;;16.90;74.70;102207.88;4893713;29;20045;-77
2023/09/26 09:45:47;;;;;;;5.75;5.07;;;;;;;16.94;73.64;102195.44;4875355;29;20045;-77
2023/09/26 09:48:14;;;;;;;6.65;4.80;;;;;;;17.00;73.52;102194.31;4900379;29;20399;-81
2023/09/26 09:50:47;;;;;;;8.73;4.70;;;;;;;17.08;72.78;102193.75;4886674;29;20067;-78
2023/09/26 09:53:17;;;;;;;7.80;4.47;;;;;;;17.11;73.67;102186.94;4854517;29;20477;-79
2023/09/26 09:55:48;;;;;;;6.47;4.75;;;;;;;17.19;72.43;102189.88;4884196;29;20037;-79
2023/09/26 09:58:17;;;;;;;6.43;4.78;;;;;;;17.32;73.15;102184.94;4860690;29;20080;-74
2023/09/26 10:00:43;;;;;;;5.38;4.78;;;;;;;17.49;72.31;102182.69;4872777;29;20487;-78
2023/09/26 10:03:11;;;;;;;6.03;4.45;;;;;;;17.69;72.87;102173.59;4856943;29;20041;-76
2023/09/26 10:05:38;;;;;;;7.82;4.80;;;;;;;17.82;71.64;102177.59;4912921;29;20041;-75
2023/09/26 10:08:06;;;;;;;7.07;5.18;;;;;;;17.80;71.45;102175.16;4893057;29;20037;-78
2023/09/26 10:10:34;;;;;;;6.75;4.63;;;;;;;17.94;71.15;102176.13;4884282;29;20033;-76
2023/09/26 10:13:02;;;;;;;7.07;5.03;;;;;;;18.05;71.12;102173.31;4886434;29;20032;-77
2023/09/26 10:15:31;;;;;;;5.63;4.57;;;;;;;18.10;71.72;102181.41;4875687;29;20032;-78
2023/09/26 10:18:02;;;;;;;5.38;4.60;;;;;;;18.06;70.94;102173.03;4873292;29;20043;-79
2023/09/26 10:20:31;;;;;;;6.88;4.57;;;;;;;18.06;71.29;102173.03;4890444;29;20063;-78
2023/09/26 10:23:09;;;;;;;8.02;4.93;;;;;;;18.05;71.77;102170.63;4890298;29;20032;-75
2023/09/26 10:25:36;;;;;;;5.20;4.05;;;;;;;18.11;71.31;102170.28;4872526;29;20455;-77
2023/09/26 10:28:03;;;;;;;4.70;3.90;;;;;;;18.16;70.88;102159.41;4873326;29;20047;-76
2023/09/26 10:30:43;;;;;;;5.75;4.10;;;;;;;18.23;70.54;102161.78;4897822;29;20127;-79
2023/09/26 10:33:09;;;;;;;4.85;4.10;;;;;;;18.27;71.19;102158.19;4880572;29;20044;-76
2023/09/26 10:35:42;;;;;;;4.60;3.72;;;;;;;18.45;70.49;102153.13;4895383;29;20041;-79
2023/09/26 10:38:23;;;;;;;4.50;3.80;;;;;;;18.62;70.04;102156.16;4898841;29;20173;-78
2023/09/26 10:40:48;;;;;;;4.20;3.78;;;;;;;18.68;69.62;102162.38;4857524;29;20109;-77
2023/09/26 10:43:16;;;;;;;7.43;3.53;;;;;;;18.74;70.65;102155.78;4892928;29;20041;-77
2023/09/26 10:45:44;;;;;;;4.15;3.40;;;;;;;18.73;69.94;102160.41;4857806;29;20064;-78
2023/09/26 10:48:16;;;;;;;6.85;4.40;;;;;;;18.74;70.51;102155.78;4870141;29;20043;-77
2023/09/26 10:50:42;;;;;;;6.20;3.85;;;;;;;18.75;69.85;102143.84;4897748;29;20040;-79
2023/09/26 10:53:07;;;;;;;4.88;4.03;;;;;;;18.81;71.47;102143.47;4885711;29;20067;-79
2023/09/26 10:55:33;;;;;;;5.80;4.05;;;;;;;18.78;70.24;102132.41;4882956;29;20044;-76
2023/09/26 10:57:59;;;;;;;8.07;4.22;;;;;;;18.83;70.21;102135.03;4881564;29;20043;-75
2023/09/26 11:00:25;;;;;;;6.97;3.50;;;;;;;18.94;69.93;102139.25;4893003;29;20045;-78
2023/09/26 11:02:51;;;;;;;5.70;3.70;;;;;;;19.03;71.04;102144.81;4871754;29;20454;-76
2023/09/26 11:05:18;;;;;;;7.25;4.43;;;;;;;19.08;70.59;102128.47;4856763;29;20056;-78
2023/09/26 11:07:44;;;;;;;7.35;4.10;;;;;;;19.14;70.79;102130.00;4870778;29;20043;-77
2023/09/26 11:10:14;;;;;;;5.00;3.10;;;;;;;19.19;70.96;102134.56;4892411;29;20457;-77
2023/09/26 11:12:41;;;;;;;7.50;4.40;;;;;;;19.23;70.81;102141.00;4882745;29;20032;-75
2023/09/26 11:15:08;;;;;;;6.97;3.53;;;;;;;19.27;71.43;102139.34;4854702;29;20120;-74
2023/09/26 11:17:36;;;;;;;4.85;3.03;;;;;;;19.26;71.07;102141.25;4894106;29;20514;-77
2023/09/26 11:20:07;;;;;;;4.60;3.03;;;;;;;19.27;71.08;102132.00;4881395;29;20044;-76
2023/09/26 11:22:45;;;;;;;4.45;3.13;;;;;;;19.29;70.34;102128.97;4853585;29;20037;-79
2023/09/26 11:25:13;;;;;;;4.65;3.55;;;;;;;19.31;68.53;102127.59;4914802;29;20040;-76
2023/09/26 11:27:40;;;;;;;4.45;3.42;;;;;;;19.35;68.92;102133.22;4865651;29;20041;-78
2023/09/26 11:30:13;;;;;;;4.22;3.08;;;;;;;19.49;68.24;102133.28;4881264;29;20484;-77
2023/09/26 11:32:40;;;;;;;4.88;3.08;;;;;;;19.71;68.09;102119.09;4882781;29;20041;-75
2023/09/26 11:35:06;;;;;;;4.30;3.03;;;;;;;19.86;67.63;102125.09;4858622;29;20096;-75
2023/09/26 11:37:32;;;;;;;4.60;3.30;;;;;;;19.85;66.05;102126.22;4888438;29;20044;-80